Biloxi, MS

2:49 AM CDT on September 22, 2014 (GMT -0500)
Lott International | Change Station
CLOSE
Current Station
Airport
Location: Pascagoula,
Elevation: 16 ft
Nearby Weather Stations

Elev 16 ft 30.46 °N, 88.53 °W | Updated 56 minutes ago

Clear
Clear
66 °F
Feels Like 66 °F
N
0
Wind Variable Wind from North

Today
High -- | Low -- °F
--% Chance of Precip.
Yesterday
High -- | Low -- °F
Precip. -- in
6:43 AM 6:52 PM
Waning Crescent, 3% visible
Pressure 30.01 in
Visibility 3.0 miles
Clouds Clear
Dew Point 66 °F
Humidity 100%
Rainfall 0.00 in
Snow Depth Not available.
UV 0 out of 12
Pollen 9.90 out of 12
PM2.5 Good
Flu Activity Not available.
METAR KPQL 220653Z AUTO 00000KT 3SM BR CLR 19/19 A3000 RMK AO2 SLP160 T01890189 TSNO

More Conditions Fewer Conditions

Pressure 30.01 in
Visibility 3.0 miles
Clouds Clear
Dew Point 66 °F
Humidity 100%
Rainfall 0.00 in
Snow Depth Not available.
UV 0 out of 12
Pollen 9.90 out of 12
PM2.5 Good
Flu Activity Not available.
METAR KPQL 220653Z AUTO 00000KT 3SM BR CLR 19/19 A3000 RMK AO2 SLP160 T01890189 TSNO

More Conditions Fewer Conditions

10-Day Weather Forecast

Almanac

Astronomy

Sep. 22, 2014 Rise Set
Actual Time 6:43 AM CDT 6:52 PM CDT
Civil Twilight 6:19 AM CDT 7:16 PM CDT
Nautical Twilight 5:51 AM CDT 7:44 PM CDT
Astronomical Twilight 5:23 AM CDT 8:12 PM CDT
Moon 5:16 AM CDT 5:57 PM CDT
Length of Visible Light 12h 56m
Length of Day
12h 08m
Tomorrow will be 1m 50s shorter.
Waning Crescent, 3% of the Moon is Illuminated
Today
Waning Crescent
Sep 24
New
Oct 1
First Quarter
Oct 8
Full
Oct 15
Last Quarter

Today's Extremes

State Highs State Lows

Community

WunderPhotos

Upload Photos

1,755,392 photos uploaded!

Nearby

Air Quality

  Air Quality AQ Index Pollutant
Yesterday Good
OZONE
Yesterday Good
PM2.5
Current Good
PM2.5
Monday Good
OZONE
Monday Good
PM2.5
Tuesday Good
OZONE
Tuesday Good
PM2.5
Wednesday Good
OZONE
Wednesday Good
PM2.5

Snow Depth

Station Depth Elevation
No new snow has been reported.

Earthquake Activity

City Distance Mag. Time & Date
No recent earthquake activity has been reported nearby.
Minimum magnitude displayed is 2.5.

Coastal Water Temperatures

Place Temperature
No Stations Reporting

Nearby Weather Stations